sensor_id;sensor_type;location;lat;lon;timestamp;pressure;altitude;pressure_sealevel;temperature;humidity
63582;BME280;49727;51.078;17.066;2022-08-20T00:01:55;99682.81;;;22.46;70.20
63582;BME280;49727;51.078;17.066;2022-08-20T00:16:55;99678.34;;;22.29;70.77
63582;BME280;49727;51.078;17.066;2022-08-20T00:31:56;99683.34;;;21.78;70.53
63582;BME280;49727;51.078;17.066;2022-08-20T00:46:56;99688.13;;;21.43;71.71
63582;BME280;49727;51.078;17.066;2022-08-20T01:01:59;99692.44;;;21.44;72.10
63582;BME280;49727;51.078;17.066;2022-08-20T01:17:04;99728.00;;;21.26;72.14
63582;BME280;49727;51.078;17.066;2022-08-20T01:32:05;99724.16;;;21.00;73.01
63582;BME280;49727;51.078;17.066;2022-08-20T01:47:28;99706.63;;;20.85;73.76
63582;BME280;49727;51.078;17.066;2022-08-20T02:02:30;99676.59;;;20.87;74.17
63582;BME280;49727;51.078;17.066;2022-08-20T02:17:30;99667.16;;;20.89;74.66
63582;BME280;49727;51.078;17.066;2022-08-20T02:32:31;99660.19;;;20.93;74.90
63582;BME280;49727;51.078;17.066;2022-08-20T02:47:31;99663.31;;;20.85;75.28
63582;BME280;49727;51.078;17.066;2022-08-20T03:02:31;99625.78;;;20.94;75.54
63582;BME280;49727;51.078;17.066;2022-08-20T03:17:32;99654.81;;;20.99;75.92
63582;BME280;49727;51.078;17.066;2022-08-20T03:32:32;99661.22;;;20.92;76.26
63582;BME280;49727;51.078;17.066;2022-08-20T03:47:33;99677.56;;;20.98;76.15
63582;BME280;49727;51.078;17.066;2022-08-20T04:02:33;99664.78;;;20.93;76.12
63582;BME280;49727;51.078;17.066;2022-08-20T04:17:33;99663.91;;;20.87;76.32
63582;BME280;49727;51.078;17.066;2022-08-20T04:32:42;99706.56;;;20.80;76.39
63582;BME280;49727;51.078;17.066;2022-08-20T04:47:42;99694.19;;;20.67;77.07
63582;BME280;49727;51.078;17.066;2022-08-20T05:02:43;99711.66;;;20.59;77.52
63582;BME280;49727;51.078;17.066;2022-08-20T05:17:43;99722.56;;;20.65;77.26
63582;BME280;49727;51.078;17.066;2022-08-20T05:32:44;99711.19;;;21.02;77.21
63582;BME280;49727;51.078;17.066;2022-08-20T05:47:46;99702.31;;;21.28;76.90
63582;BME280;49727;51.078;17.066;2022-08-20T06:02:47;99698.94;;;21.66;76.47
63582;BME280;49727;51.078;17.066;2022-08-20T06:18:07;99720.19;;;22.39;75.41
63582;BME280;49727;51.078;17.066;2022-08-20T06:33:08;99727.19;;;22.67;74.08
63582;BME280;49727;51.078;17.066;2022-08-20T06:48:11;99729.50;;;22.96;73.41
63582;BME280;49727;51.078;17.066;2022-08-20T07:03:12;99722.63;;;23.26;72.29
63582;BME280;49727;51.078;17.066;2022-08-20T07:18:13;99725.22;;;23.79;71.03
63582;BME280;49727;51.078;17.066;2022-08-20T07:33:13;99725.53;;;24.49;69.60
63582;BME280;49727;51.078;17.066;2022-08-20T07:48:14;99726.28;;;24.91;67.65
63582;BME280;49727;51.078;17.066;2022-08-20T08:03:15;99746.06;;;25.23;66.33
63582;BME280;49727;51.078;17.066;2022-08-20T08:18:19;99753.75;;;25.76;64.64
63582;BME280;49727;51.078;17.066;2022-08-20T08:33:24;99735.34;;;27.77;60.72
63582;BME280;49727;51.078;17.066;2022-08-20T08:48:47;99748.13;;;29.78;56.90
63582;BME280;49727;51.078;17.066;2022-08-20T09:03:50;99744.88;;;31.64;50.83
63582;BME280;49727;51.078;17.066;2022-08-20T09:18:51;99742.34;;;33.36;46.27
63582;BME280;49727;51.078;17.066;2022-08-20T09:33:52;99752.25;;;33.58;42.80
63582;BME280;49727;51.078;17.066;2022-08-20T09:48:52;99737.63;;;32.68;42.64
63582;BME280;49727;51.078;17.066;2022-08-20T10:03:52;99745.56;;;31.12;44.95
63582;BME280;49727;51.078;17.066;2022-08-20T10:18:53;99736.56;;;30.49;46.74
63582;BME280;49727;51.078;17.066;2022-08-20T10:33:53;99748.72;;;31.46;46.42
63582;BME280;49727;51.078;17.066;2022-08-20T10:48:54;99755.75;;;30.71;46.82
63582;BME280;49727;51.078;17.066;2022-08-20T11:03:54;99777.53;;;29.63;47.75
63582;BME280;49727;51.078;17.066;2022-08-20T11:18:56;99752.38;;;29.33;49.04
63582;BME280;49727;51.078;17.066;2022-08-20T11:33:56;99752.28;;;29.89;48.76
63582;BME280;49727;51.078;17.066;2022-08-20T11:48:57;99738.38;;;32.04;46.39
63582;BME280;49727;51.078;17.066;2022-08-20T12:03:57;99728.44;;;33.75;41.98
63582;BME280;49727;51.078;17.066;2022-08-20T12:18:58;99718.31;;;34.00;40.76
63582;BME280;49727;51.078;17.066;2022-08-20T12:33:58;99706.97;;;34.60;38.91
63582;BME280;49727;51.078;17.066;2022-08-20T12:48:59;99692.56;;;34.79;38.39
63582;BME280;49727;51.078;17.066;2022-08-20T13:03:59;99684.31;;;35.57;37.06
63582;BME280;49727;51.078;17.066;2022-08-20T13:18:59;99674.88;;;35.74;35.84
63582;BME280;49727;51.078;17.066;2022-08-20T13:34:00;99665.06;;;35.77;35.73
63582;BME280;49727;51.078;17.066;2022-08-20T13:49:00;99656.72;;;34.95;36.08
63582;BME280;49727;51.078;17.066;2022-08-20T14:04:01;99658.78;;;33.06;38.80
63582;BME280;49727;51.078;17.066;2022-08-20T14:19:01;99686.41;;;30.75;41.89
63582;BME280;49727;51.078;17.066;2022-08-20T14:34:01;99693.88;;;29.61;43.91
63582;BME280;49727;51.078;17.066;2022-08-20T14:49:02;99709.34;;;28.31;46.38
63582;BME280;49727;51.078;17.066;2022-08-20T15:04:02;99729.47;;;25.74;53.50
63582;BME280;49727;51.078;17.066;2022-08-20T15:19:02;99769.00;;;23.77;58.61
63582;BME280;49727;51.078;17.066;2022-08-20T15:34:03;99768.28;;;23.24;62.48
63582;BME280;49727;51.078;17.066;2022-08-20T15:49:03;99804.13;;;23.26;63.79
63582;BME280;49727;51.078;17.066;2022-08-20T16:19:04;99781.16;;;23.01;66.58
63582;BME280;49727;51.078;17.066;2022-08-20T16:34:25;99776.28;;;22.60;68.14
63582;BME280;49727;51.078;17.066;2022-08-20T16:49:28;99797.47;;;22.31;69.11
63582;BME280;49727;51.078;17.066;2022-08-20T17:04:31;99809.03;;;21.94;70.44
63582;BME280;49727;51.078;17.066;2022-08-20T17:19:31;99820.72;;;21.72;72.13
63582;BME280;49727;51.078;17.066;2022-08-20T17:34:46;99796.97;;;21.57;73.09
63582;BME280;49727;51.078;17.066;2022-08-20T17:49:54;99831.94;;;21.42;74.26
63582;BME280;49727;51.078;17.066;2022-08-20T18:04:58;99827.53;;;21.36;74.94
63582;BME280;49727;51.078;17.066;2022-08-20T18:50:31;99871.41;;;21.33;76.07
63582;BME280;49727;51.078;17.066;2022-08-20T19:20:53;99875.22;;;21.15;76.50
63582;BME280;49727;51.078;17.066;2022-08-20T19:36:11;99884.06;;;21.10;76.80
63582;BME280;49727;51.078;17.066;2022-08-20T19:51:20;99861.59;;;21.09;76.90
63582;BME280;49727;51.078;17.066;2022-08-20T20:06:25;99859.78;;;21.15;77.40
63582;BME280;49727;51.078;17.066;2022-08-20T20:21:41;99843.97;;;21.29;77.24
63582;BME280;49727;51.078;17.066;2022-08-20T20:36:45;99833.41;;;21.27;76.95
63582;BME280;49727;51.078;17.066;2022-08-20T21:06:54;99828.41;;;21.19;77.14
63582;BME280;49727;51.078;17.066;2022-08-20T21:21:55;99831.03;;;21.14;77.13
63582;BME280;49727;51.078;17.066;2022-08-20T21:36:55;99831.38;;;21.01;77.49
63582;BME280;49727;51.078;17.066;2022-08-20T21:51:57;99835.00;;;20.89;77.47
63582;BME280;49727;51.078;17.066;2022-08-20T22:06:57;99836.00;;;20.83;77.75
63582;BME280;49727;51.078;17.066;2022-08-20T22:21:57;99836.91;;;20.89;77.82
63582;BME280;49727;51.078;17.066;2022-08-20T22:36:59;99832.16;;;20.79;77.97
63582;BME280;49727;51.078;17.066;2022-08-20T22:52:00;99793.84;;;20.70;78.29
63582;BME280;49727;51.078;17.066;2022-08-20T23:07:02;99826.16;;;20.60;78.20
63582;BME280;49727;51.078;17.066;2022-08-20T23:22:04;99827.25;;;20.47;78.33
63582;BME280;49727;51.078;17.066;2022-08-20T23:37:05;99821.00;;;20.29;78.63
63582;BME280;49727;51.078;17.066;2022-08-20T23:52:05;99832.56;;;20.25;78.68
